Latest Coastal Weather Observations for Cape Leeuwin

IDW60701

Issued at 7:42 am WST Monday 2 March 2015 (issued every 10 minutes, with the page automatically refreshed every 10 minutes)

About coastal observations | Map of coastal stations | Coastal observations for WA | Marine services | Other Formats
Station Details ID: 009518 Name: CAPE LEEUWIN Lat: -34.37 Lon: 115.14 Height: 13.0 m
Data from the previous 72 hours. | See also: Recent months at Cape Leeuwin
Date/Time
WST
Temp

°C
Wind Pressure Rain
since 9am
mm
Weather Cloud Vis
km
Sea
Height
m
Swell
Dir
 
Speed
knots
Gust
knots
hPa Trend Height
m
Period
s
Dir
02/07:30am 19.0 SE 22 27 1018.7 - 0.0 - - - - - - -
02/07:00am 19.0 SE 24 29 1018.5 - 0.0 - - - - - - -
02/06:30am 18.6 SE 21 27 1018.2 - 0.0 - - - - - - -
02/06:00am 18.3 SE 22 26 1017.9 - 0.0 - - - - - - -
02/05:30am 18.4 ESE 23 28 1017.7 - 0.0 - - - - - - -
02/05:00am 18.5 SE 19 26 1017.4 - 0.0 - - - - - - -
02/04:30am 18.5 SE 22 27 1017.1 - 0.0 - - - - - - -
02/04:00am 18.5 SE 22 28 1016.8 - 0.0 - - - - - - -
02/03:30am 18.5 SE 21 27 1016.6 - 0.0 - - - - - - -
02/03:00am 18.4 SE 21 28 1016.6 - 0.0 - - - - - - -
02/02:30am 18.6 ESE 21 27 1016.9 - 0.0 - - - - - - -
02/02:00am 18.5 SE 21 25 1016.9 - 0.0 - - - - - - -
02/01:30am 18.5 SE 20 25 1016.9 - 0.0 - - - - - - -
02/01:00am 18.2 SE 22 29 1017.1 - 0.0 - - - - - - -
02/12:30am 18.3 SE 22 27 1017.2 - 0.0 - - - - - - -
02/12:00am 18.4 SE 22 27 1017.2 - 0.0 - - - - - - -
 
Date/Time
WST
Temp

°C
Wind Pressure Rain
since 9am
mm
Weather Cloud Vis
km
Sea
Height
m
Swell
Dir
 
Speed
knots
Gust
knots
hPa Trend Height
m
Period
s
Dir
01/11:30pm 18.4 SE 20 26 1017.3 - 0.0 - - - - - - -
01/11:00pm 18.4 SE 22 29 1017.1 - 0.0 - - - - - - -
01/10:30pm 18.3 SE 22 29 1017.1 - 0.0 - - - - - - -
01/10:00pm 18.4 SE 21 27 1017.1 - 0.0 - - - - - - -
01/09:30pm 18.2 SE 23 28 1016.9 - 0.0 - - - - - - -
01/09:00pm 18.3 SE 23 29 1016.7 - 0.0 - - - - - - -
01/08:30pm 18.3 SE 23 29 1016.4 - 0.0 - - - - - - -
01/08:00pm 18.3 SE 22 28 1015.8 - 0.0 - - - - - - -
01/07:30pm 18.2 SE 24 29 1015.6 - 0.0 - - - - - - -
01/07:00pm 18.4 SE 25 29 1015.2 - 0.0 - - - - - - -
01/06:30pm 18.6 SE 25 30 1014.9 - 0.0 - - - - - - -
01/06:00pm 18.4 SSE 26 32 1014.7 - 0.0 - - - - - - -
01/05:30pm 18.5 SSE 26 32 1014.6 - 0.0 - - - - - - -
01/05:00pm 18.9 SE 25 31 1014.4 - 0.0 - - - - - - -
01/04:30pm 19.1 SE 25 31 1014.2 - 0.0 - - - - - - -
01/04:00pm 19.1 SSE 26 33 1013.9 - 0.0 - - - - - - -
01/03:30pm 19.4 SSE 25 33 1013.8 - 0.0 - - - - - - -
01/03:00pm 19.7 SSE 24 30 1014.0 - 0.0 - - - - - - -
01/02:30pm 20.4 SSE 25 30 1013.9 - 0.0 - - - - - - -
01/02:00pm 20.3 SSE 24 30 1014.0 - 0.0 - - - - - - -
01/01:30pm 21.2 SSE 22 27 1013.9 - 0.0 - - - - - - -
01/01:00pm 21.5 SE 22 27 1014.1 - 0.0 - - - - - - -
01/12:30pm 21.3 SSE 21 26 1014.1 - 0.0 - - - - - - -
01/12:00pm 21.4 SE 23 28 1014.1 - 0.0 - - - - - - -
01/11:30am 21.1 SE 23 27 1014.4 - 0.0 - - - - - - -
01/11:00am 21.6 SE 21 26 1014.9 - 0.0 - - - - - - -
01/10:30am 20.4 SE 19 25 1015.1 - 0.0 - - - - - - -
01/10:00am 20.1 SE 19 25 1015.2 - 0.0 - - - - - - -
01/09:30am 19.3 ESE 20 24 1015.4 - 0.0 - - - - - - -
01/09:00am 19.3 ESE 21 25 1015.4 - 0.0 - - - - - - -
01/08:30am 19.0 ESE 25 29 1015.5 - 0.0 - - - - - - -
01/08:00am 18.5 ESE 25 29 1015.6 - 0.0 - - - - - - -
01/07:30am 18.3 ESE 25 29 1015.6 - 0.0 - - - - - - -
01/07:00am 17.9 ESE 25 29 1015.8 - 0.0 - - - - - - -
01/06:30am 17.5 ESE 24 27 1015.9 - 0.0 - - - - - - -
01/06:00am 17.1 ESE 22 25 1016.0 - 0.0 - - - - - - -
01/05:30am 17.0 ESE 21 26 1015.8 - 0.0 - - - - - - -
01/05:00am 17.0 ESE 24 28 1015.6 - 0.0 - - - - - - -
01/04:30am 17.1 ESE 24 28 1015.5 - 0.0 - - - - - - -
01/04:00am 17.4 ESE 26 31 1015.7 - 0.0 - - - - - - -
01/03:30am 17.3 ESE 24 29 1015.6 - 0.0 - - - - - - -
01/03:00am 17.1 ESE 24 28 1015.6 - 0.0 - - - - - - -
01/02:30am 16.8 ESE 23 29 1015.7 - 0.0 - - - - - - -
01/02:00am 16.7 ESE 23 28 1015.5 - 0.0 - - - - - - -
01/01:30am 16.8 ESE 22 27 1015.7 - 0.0 - - - - - - -
01/01:00am 16.9 ESE 22 27 1015.9 - 0.0 - - - - - - -
01/12:30am 17.0 ESE 22 27 1015.9 - 0.0 - - - - - - -
01/12:00am 17.2 ESE 23 27 1016.0 - 0.0 - - - - - - -
 
Date/Time
WST
Temp

°C
Wind Pressure Rain
since 9am
mm
Weather Cloud Vis
km
Sea
Height
m
Swell
Dir
 
Speed
knots
Gust
knots
hPa Trend Height
m
Period
s
Dir
28/11:30pm 17.0 ESE 23 28 1016.2 - 0.0 - - - - - - -
28/11:00pm 17.3 ESE 23 27 1016.2 - 0.0 - - - - - - -
28/10:30pm 17.6 ESE 24 30 1016.5 - 0.0 - - - - - - -
28/10:00pm 18.0 ESE 25 31 1016.6 - 0.0 - - - - - - -
28/09:30pm 18.1 SE 23 30 1016.9 - 0.0 - - - - - - -
28/09:00pm 18.2 SE 25 32 1016.9 - 0.0 - - - - - - -
28/08:30pm 18.3 SE 23 31 1016.8 - 0.0 - - - - - - -
28/08:00pm 18.1 SE 24 30 1016.7 - 0.0 - - - - - - -
28/07:30pm 18.2 SE 23 29 1016.5 - 0.0 - - - - - - -
28/07:00pm 18.3 SE 23 29 1016.5 - 0.0 - - - - - - -
28/06:30pm 18.5 SE 23 29 1016.3 - 0.0 - - - - - - -
28/06:00pm 19.1 SE 20 27 1016.5 - 0.0 - - - - - - -
28/05:30pm 19.2 SE 23 28 1016.5 - 0.0 - - - - - - -
28/05:00pm 19.9 SE 21 27 1016.6 - 0.0 - - - - - - -
28/04:30pm 20.1 SE 22 27 1016.8 - 0.0 - - - - - - -
28/04:00pm 20.4 SE 22 27 1016.9 - 0.0 - - - - - - -
28/03:30pm 20.7 SE 23 28 1016.9 - 0.0 - - - - - - -
28/03:00pm 20.9 SE 20 26 1017.4 - 0.0 - - - - - - -
28/02:30pm 20.7 SSE 22 28 1017.7 - 0.0 - - - - - - -
28/02:00pm 21.3 SE 22 26 1017.9 - 0.0 - - - - - - -
28/01:30pm 21.2 SE 20 24 1018.3 - 0.0 - - - - - - -
28/01:00pm 21.0 SE 18 22 1018.7 - 0.0 - - - - - - -
28/12:30pm 21.1 SE 18 21 1019.0 - 0.0 - - - - - - -
28/12:00pm 21.2 SE 17 21 1019.4 - 0.0 - - - - - - -
28/11:30am 21.0 SE 17 21 1019.7 - 0.0 - - - - - - -
28/11:00am 20.9 SE 15 21 1020.0 - 0.0 - - - - - - -
28/10:30am 20.3 SE 15 19 1020.3 - 0.0 - - - - - - -
28/10:00am 20.6 SE 16 21 1020.2 - 0.0 - - - - - - -
28/09:30am 19.1 SE 17 20 1020.0 - 0.0 - - - - - - -
28/09:00am 19.0 SE 16 21 1020.0 - 0.0 - - - - - - -
28/08:30am 18.4 SE 15 21 1019.9 - 0.0 - - - - - - -
28/08:00am 19.1 SE 14 17 1019.7 - 0.0 - - - - - - -
28/07:30am 17.8 SE 14 18 1019.7 - 0.0 - - - - - - -
28/07:00am 17.5 SE 14 18 1019.3 - 0.0 - - - - - - -
28/06:30am 17.1 SSE 14 19 1018.8 - 0.0 - - - - - - -
28/06:00am 17.0 SSE 15 18 1018.3 - 0.0 - - - - - - -
28/05:30am 17.1 SSE 17 22 1018.0 - 0.0 - - - - - - -
28/05:00am 17.4 SSE 18 23 1017.8 - 0.0 - - - - - - -
28/04:30am 17.6 SSE 18 23 1017.3 - 0.0 - - - - - - -
28/04:00am 17.8 SE 17 23 1017.0 - 0.0 - - - - - - -
28/03:30am 17.8 SE 16 19 1016.8 - 0.0 - - - - - - -
28/03:00am 17.7 SSE 18 21 1016.7 - 0.0 - - - - - - -
28/02:30am 17.7 SE 18 22 1016.6 - 0.0 - - - - - - -
28/02:00am 17.8 SSE 19 23 1016.5 - 0.0 - - - - - - -
28/01:30am 17.9 SSE 20 25 1016.5 - 0.0 - - - - - - -
28/01:00am 18.3 SSE 21 25 1016.6 - 0.0 - - - - - - -
28/12:30am 18.2 SSE 19 23 1016.4 - 0.0 - - - - - - -
28/12:00am 18.6 SSE 20 25 1016.3 - 0.0 - - - - - - -
 
Date/Time
WST
Temp

°C
Wind Pressure Rain
since 9am
mm
Weather Cloud Vis
km
Sea
Height
m
Swell
Dir
 
Speed
knots
Gust
knots
hPa Trend Height
m
Period
s
Dir
27/11:30pm 18.4 SSE 20 26 1016.1 - 0.0 - - - - - - -
27/11:00pm 18.9 SSE 22 28 1015.9 - 0.0 - - - - - - -
27/10:30pm 18.8 SSE 21 27 1016.0 - 0.0 - - - - - - -
27/10:00pm 19.1 SSE 20 26 1015.9 - 0.0 - - - - - - -
27/09:30pm 19.1 SSE 18 24 1015.9 - 0.0 - - - - - - -
27/09:00pm 19.3 SSE 18 24 1015.7 - 0.0 - - - - - - -
27/08:30pm 19.5 SSE 17 23 1015.3 - 0.0 - - - - - - -
27/08:00pm 19.5 SSE 18 23 1014.9 - 0.0 - - - - - - -
27/07:30pm 19.5 SSE 17 23 1014.4 - 0.0 - - - - - - -
27/07:00pm 19.7 SSE 17 23 1014.0 - 0.0 - - - - - - -
27/06:30pm 19.8 SSE 18 23 1013.5 - 0.0 - - - - - - -
27/06:00pm 20.1 SSE 18 23 1013.0 - 0.0 - - - - - - -
27/05:30pm 20.6 S 18 23 1012.7 - 0.0 - - - - - - -
27/05:00pm 22.4 S 15 19 1012.4 - 0.0 - - - - - - -
27/04:30pm 22.9 S 13 17 1011.9 - 0.0 - - - - - - -
27/04:00pm 23.6 SSW 13 16 1011.7 - 0.0 - - - - - - -
27/03:30pm 24.1 SW 13 16 1011.4 - 0.0 - - - - - - -
27/03:00pm 23.7 SW 12 14 1011.4 - 0.0 - - - - - - -
27/02:30pm 22.7 SW 10 13 1011.2 - 0.0 - - - - - - -
27/02:00pm 22.5 WSW 10 12 1011.2 - 0.0 - - - - - - -
27/01:30pm 23.8 WSW 10 12 1011.1 - 0.0 - - - - - - -
27/01:00pm 23.5 WSW 12 14 1011.1 - 0.0 - - - - - - -
27/12:30pm 23.8 SW 11 13 1010.9 - 0.0 - - - - - - -
27/12:00pm 23.2 WSW 11 12 1011.0 - 0.0 - - - - - - -
27/11:30am 23.2 SW 10 13 1011.0 - 0.0 - - - - - - -
27/11:00am 22.7 WSW 10 13 1010.9 - 0.0 - - - - - - -
27/10:30am 22.6 WSW 10 12 1010.9 - 0.0 - - - - - - -
27/10:00am 22.2 WSW 10 12 1010.9 - 0.0 - - - - - - -
27/09:30am 22.1 SW 11 13 1010.5 - 0.0 - - - - - - -
27/09:00am 21.9 SW 9 11 1010.2 - 1.6 - - - - - - -
27/08:30am 21.2 SSW 9 12 1009.8 - 1.6 - - - - - - -
27/08:00am 20.6 SSW 10 13 1009.7 - 1.6 - - - - - - -

Other Formats:

Comma delimited format used in spreadsheet applications
http://www.bom.gov.au/fwo/IDW60701/IDW60701.94601.axf

JavaScript Object Notation format (JSON) in row-major order
http://www.bom.gov.au/fwo/IDW60701/IDW60701.94601.json